Time;durP1;ratioP1;P1;durP2;ratioP2;P2;SDS_P1;SDS_P2;PMS_P1;PMS_P2;Temp;Humidity;BMP_temperature;BMP_pressure;BME280_temperature;BME280_humidity;BME280_pressure;Samples;Min_cycle;Max_cycle;Signal;HPM_P1;HPM_P2
2022/04/08 00:00:08;;;;;;;15.80;2.80;;;;;;;16.06;80.77;99526.47;5038043;28;20113;-47
2022/04/08 00:02:38;;;;;;;19.45;2.13;;;;;;;15.88;78.65;99519.63;5030446;28;20476;-48
2022/04/08 00:05:08;;;;;;;25.45;2.55;;;;;;;15.62;78.22;99533.00;5036631;28;20041;-48
2022/04/08 00:07:34;;;;;;;25.33;2.83;;;;;;;15.79;81.85;99535.50;5045276;28;20037;-49
2022/04/08 00:10:00;;;;;;;19.50;3.08;;;;;;;15.57;77.98;99552.63;5020932;28;20037;-49
2022/04/08 00:12:25;;;;;;;16.33;2.57;;;;;;;15.74;78.64;99538.16;5041994;28;20091;-45
2022/04/08 00:14:50;;;;;;;17.83;2.83;;;;;;;16.40;74.62;99550.31;5042247;28;20129;-47
2022/04/08 00:17:16;;;;;;;37.90;4.82;;;;;;;16.39;71.99;99550.56;5034878;28;20038;-45
2022/04/08 00:19:41;;;;;;;18.47;2.90;;;;;;;16.05;72.22;99559.91;5046696;28;20049;-45
2022/04/08 00:22:07;;;;;;;20.10;2.73;;;;;;;15.55;76.33;99560.16;5028825;28;20080;-48
2022/04/08 00:24:33;;;;;;;21.70;2.85;;;;;;;15.77;73.03;99567.28;5039932;28;20045;-49
2022/04/08 00:26:58;;;;;;;12.30;1.63;;;;;;;15.78;73.71;99577.00;5037265;28;20106;-46
2022/04/08 00:29:24;;;;;;;21.48;3.40;;;;;;;15.66;73.61;99571.81;5030185;28;20034;-49
2022/04/08 00:31:50;;;;;;;20.67;2.80;;;;;;;15.99;66.38;99590.63;5046704;28;20068;-48
2022/04/08 00:34:16;;;;;;;23.35;2.95;;;;;;;15.71;73.20;99590.69;5037341;28;20042;-48
2022/04/08 00:36:41;;;;;;;17.83;2.45;;;;;;;15.29;69.15;99595.00;5038825;28;20048;-48
2022/04/08 00:39:11;;;;;;;23.60;3.45;;;;;;;15.67;68.14;99597.69;5046656;28;20038;-48
2022/04/08 00:41:37;;;;;;;15.60;2.20;;;;;;;16.15;68.49;99600.41;5018796;28;20049;-49
2022/04/08 00:44:03;;;;;;;19.45;3.40;;;;;;;15.66;68.16;99606.03;5038853;28;20030;-48
2022/04/08 00:46:29;;;;;;;22.30;2.75;;;;;;;15.52;67.61;99611.88;5044533;28;20083;-46
2022/04/08 00:48:54;;;;;;;27.13;3.87;;;;;;;16.27;66.80;99608.28;5045992;28;20037;-45
2022/04/08 00:51:21;;;;;;;15.80;3.47;;;;;;;15.71;67.52;99606.06;5037460;28;20073;-48
2022/04/08 00:53:48;;;;;;;23.48;2.47;;;;;;;15.74;68.60;99608.25;5049623;28;20294;-50
2022/04/08 00:56:15;;;;;;;17.00;2.97;;;;;;;16.31;66.63;99628.25;5040059;28;20041;-46
2022/04/08 00:58:40;;;;;;;22.15;3.53;;;;;;;15.83;69.50;99625.53;5042967;28;20067;-47
2022/04/08 01:01:06;;;;;;;12.85;2.70;;;;;;;15.66;68.29;99631.09;5047266;28;20040;-47
2022/04/08 01:03:32;;;;;;;20.73;4.10;;;;;;;15.58;67.63;99627.00;5036349;28;20057;-47
2022/04/08 01:05:57;;;;;;;14.23;2.60;;;;;;;15.63;70.09;99629.72;5048585;28;20066;-50
2022/04/08 01:08:23;;;;;;;18.85;2.58;;;;;;;16.05;67.73;99646.19;5040896;28;20037;-50
2022/04/08 01:10:50;;;;;;;20.08;2.80;;;;;;;16.29;65.48;99645.78;5041567;28;20060;-48
2022/04/08 01:13:15;;;;;;;16.90;2.53;;;;;;;15.98;65.93;99646.41;5047754;28;20066;-50
2022/04/08 01:15:41;;;;;;;28.10;3.50;;;;;;;16.02;67.02;99652.13;5036380;28;20030;-47
2022/04/08 01:18:06;;;;;;;21.00;3.22;;;;;;;15.56;68.49;99664.16;5047210;28;20101;-45
2022/04/08 01:20:33;;;;;;;16.42;2.60;;;;;;;16.00;67.34;99659.66;5042260;28;20045;-46
2022/04/08 01:22:59;;;;;;;17.27;3.63;;;;;;;15.46;68.71;99664.09;5040008;28;20041;-48
2022/04/08 01:25:25;;;;;;;18.63;3.53;;;;;;;14.61;72.48;99673.44;5049272;28;20044;-45
2022/04/08 01:27:50;;;;;;;28.37;2.37;;;;;;;14.88;68.08;99673.53;5015840;28;20348;-46
2022/04/08 01:30:16;;;;;;;19.83;2.73;;;;;;;14.84;70.85;99669.69;5035203;28;20087;-49
2022/04/08 01:32:42;;;;;;;15.20;2.88;;;;;;;14.56;68.99;99673.38;5045162;28;20034;-48
2022/04/08 01:35:08;;;;;;;13.70;2.00;;;;;;;14.84;67.97;99676.97;5046549;28;20052;-46
2022/04/08 01:37:33;;;;;;;18.95;3.58;;;;;;;15.35;65.35;99676.66;5036024;28;20030;-50
2022/04/08 01:39:59;;;;;;;12.37;1.83;;;;;;;15.66;65.03;99679.63;5043409;28;20049;-48
2022/04/08 01:42:24;;;;;;;12.98;3.05;;;;;;;15.20;64.42;99682.69;5028788;28;20104;-46
2022/04/08 01:44:53;;;;;;;9.75;2.65;;;;;;;14.62;67.35;99689.31;5040940;28;20045;-50
2022/04/08 01:47:20;;;;;;;20.48;2.63;;;;;;;14.33;66.39;99684.13;5047917;28;20034;-46
2022/04/08 01:49:47;;;;;;;15.32;2.17;;;;;;;14.79;66.38;99680.41;5016549;28;20038;-47
2022/04/08 01:52:14;;;;;;;15.73;1.90;;;;;;;14.65;65.72;99688.00;5038998;28;20033;-48
2022/04/08 01:54:40;;;;;;;17.23;2.95;;;;;;;14.84;65.93;99690.41;5042033;28;20094;-47
2022/04/08 01:57:06;;;;;;;12.13;1.47;;;;;;;15.07;64.39;99697.38;5045728;28;20064;-48
2022/04/08 01:59:31;;;;;;;9.00;1.63;;;;;;;14.81;65.46;99693.63;5035699;28;20041;-48
2022/04/08 02:01:59;;;;;;;12.57;3.40;;;;;;;14.71;64.58;99689.72;5047977;28;20030;-46
2022/04/08 02:04:25;;;;;;;37.00;7.63;;;;;;;14.10;67.45;99692.41;5040343;28;20040;-44
2022/04/08 02:06:51;;;;;;;50.67;14.98;;;;;;;14.60;68.17;99682.59;5040484;28;20060;-49
2022/04/08 02:09:16;;;;;;;52.17;11.77;;;;;;;14.62;65.64;99691.22;5032216;28;20038;-48
2022/04/08 02:11:43;;;;;;;28.95;4.82;;;;;;;13.93;70.51;99690.53;5047690;28;20037;-47
2022/04/08 02:14:09;;;;;;;36.17;7.88;;;;;;;13.62;73.24;99698.13;5037713;28;20048;-46
2022/04/08 02:16:34;;;;;;;30.97;7.90;;;;;;;14.49;70.44;99698.56;5042842;28;20038;-50
2022/04/08 02:19:00;;;;;;;49.03;14.57;;;;;;;13.61;72.56;99702.72;5043748;28;20071;-49
2022/04/08 02:21:25;;;;;;;53.47;14.77;;;;;;;13.64;77.53;99705.97;5019749;28;20333;-51
2022/04/08 02:23:52;;;;;;;42.07;11.97;;;;;;;13.98;74.45;99703.25;5048063;28;20030;-50
2022/04/08 02:26:18;;;;;;;47.70;12.73;;;;;;;13.33;78.58;99707.03;5038984;28;20096;-48
2022/04/08 02:28:44;;;;;;;46.20;12.80;;;;;;;13.30;77.93;99701.34;5039486;28;20041;-49
2022/04/08 02:31:10;;;;;;;42.78;11.95;;;;;;;13.90;75.79;99705.31;5045746;28;20043;-46
2022/04/08 02:33:35;;;;;;;51.30;12.97;;;;;;;15.04;68.88;99705.97;5035025;28;20062;-47
2022/04/08 02:36:01;;;;;;;60.80;17.57;;;;;;;14.63;72.13;99701.72;5047287;28;20298;-48
2022/04/08 02:38:27;;;;;;;57.80;15.10;;;;;;;14.09;74.91;99702.38;5039893;28;20034;-47
2022/04/08 02:40:53;;;;;;;47.35;11.20;;;;;;;13.80;76.27;99704.34;5039943;28;20042;-49
2022/04/08 02:43:18;;;;;;;43.33;8.93;;;;;;;13.71;74.78;99712.78;5045957;28;20041;-50
2022/04/08 02:45:44;;;;;;;19.33;4.03;;;;;;;13.65;78.17;99712.97;5035126;28;20093;-50
2022/04/08 02:48:09;;;;;;;11.90;2.33;;;;;;;13.52;77.06;99706.84;5040160;28;20297;-50
2022/04/08 02:50:35;;;;;;;8.93;2.55;;;;;;;13.85;75.10;99715.16;5030039;28;20074;-46
2022/04/08 02:53:00;;;;;;;12.10;3.23;;;;;;;15.19;68.46;99726.84;5038660;28;20100;-47
2022/04/08 02:55:26;;;;;;;9.93;1.87;;;;;;;15.39;66.58;99730.81;5047390;28;20071;-47
2022/04/08 02:57:51;;;;;;;8.10;2.00;;;;;;;14.67;68.70;99733.53;5034665;28;20033;-45
2022/04/08 03:00:18;;;;;;;10.57;1.40;;;;;;;14.30;72.21;99734.88;5044264;28;20685;-47
2022/04/08 03:02:45;;;;;;;11.73;1.88;;;;;;;14.86;70.00;99723.28;5041631;28;20057;-46
2022/04/08 03:05:11;;;;;;;13.85;2.30;;;;;;;14.00;71.37;99734.22;5036927;28;20038;-51
2022/04/08 03:07:37;;;;;;;10.98;2.78;;;;;;;14.69;69.66;99734.88;5046458;28;20042;-48
2022/04/08 03:10:06;;;;;;;5.85;1.30;;;;;;;14.53;67.69;99731.19;5021049;28;20097;-48
2022/04/08 03:12:31;;;;;;;12.75;1.60;;;;;;;14.70;69.13;99744.59;5042713;28;20030;-47
2022/04/08 03:14:58;;;;;;;7.18;1.38;;;;;;;15.14;66.21;99738.41;5042957;28;20048;-48
2022/04/08 03:17:23;;;;;;;11.20;1.92;;;;;;;14.66;67.97;99740.78;5035224;28;20042;-46
2022/04/08 03:19:49;;;;;;;11.77;1.83;;;;;;;14.81;68.61;99739.38;5047521;28;20033;-47
2022/04/08 03:22:14;;;;;;;12.57;2.63;;;;;;;14.96;65.82;99739.53;5084621;28;20042;-49
2022/04/08 03:24:40;;;;;;;8.15;1.92;;;;;;;14.41;69.19;99750.13;5040721;28;20025;-50
2022/04/08 03:27:05;;;;;;;20.67;2.30;;;;;;;14.67;66.91;99757.75;5037790;28;20045;-47
2022/04/08 03:29:31;;;;;;;15.30;3.53;;;;;;;14.77;65.96;99756.03;5031091;28;20091;-46
2022/04/08 03:31:56;;;;;;;47.23;10.77;;;;;;;14.51;69.18;99757.53;5047311;28;20058;-46
2022/04/08 03:34:21;;;;;;;19.90;4.60;;;;;;;13.69;72.47;99770.53;5037275;28;20026;-45
2022/04/08 03:36:50;;;;;;;14.13;3.20;;;;;;;13.96;73.66;99777.94;5039686;28;20129;-46
2022/04/08 03:39:16;;;;;;;14.68;2.78;;;;;;;14.54;70.01;99770.47;5044989;28;20279;-50
2022/04/08 03:41:41;;;;;;;12.60;3.40;;;;;;;14.74;67.13;99769.94;5034162;28;20052;-48
2022/04/08 03:44:07;;;;;;;21.40;2.58;;;;;;;14.59;67.61;99769.75;5045771;28;20053;-46
2022/04/08 03:46:32;;;;;;;11.37;2.20;;;;;;;14.17;69.57;99779.91;5039439;28;20033;-45
2022/04/08 03:48:58;;;;;;;14.20;2.43;;;;;;;13.96;71.83;99781.47;5026880;28;20046;-48
2022/04/08 03:51:24;;;;;;;12.18;3.10;;;;;;;14.04;73.42;99783.72;5041851;28;20057;-45
2022/04/08 03:53:50;;;;;;;7.43;2.27;;;;;;;14.20;69.39;99782.09;5033463;28;20048;-45
2022/04/08 03:56:15;;;;;;;15.33;3.23;;;;;;;14.14;71.23;99777.72;5044755;28;20030;-47
2022/04/08 03:58:40;;;;;;;19.77;2.77;;;;;;;14.23;69.75;99779.97;5040665;28;20036;-51
2022/04/08 04:01:06;;;;;;;18.08;3.47;;;;;;;13.87;73.71;99778.34;5037604;28;20042;-48
2022/04/08 04:03:31;;;;;;;21.43;2.93;;;;;;;14.51;70.66;99767.47;5030471;28;20052;-49
2022/04/08 04:05:57;;;;;;;15.03;2.43;;;;;;;14.38;71.09;99768.63;5047000;28;20038;-48
2022/04/08 04:08:22;;;;;;;24.23;3.23;;;;;;;14.04;72.14;99772.16;5037579;28;20033;-48
2022/04/08 04:10:48;;;;;;;20.93;3.73;;;;;;;13.90;70.70;99777.88;5040232;28;20045;-46
2022/04/08 04:13:14;;;;;;;21.58;3.72;;;;;;;13.73;76.04;99774.34;5045329;28;20045;-46
2022/04/08 04:15:39;;;;;;;11.75;2.67;;;;;;;14.01;72.79;99775.34;5037012;28;20038;-51
2022/04/08 04:18:05;;;;;;;17.50;3.37;;;;;;;14.62;68.55;99769.25;5091235;28;20093;-48
2022/04/08 04:20:31;;;;;;;15.23;2.67;;;;;;;14.45;67.89;99770.09;5033972;28;20267;-50
2022/04/08 04:22:56;;;;;;;8.90;2.70;;;;;;;14.04;69.49;99764.09;5042439;28;20096;-46
2022/04/08 04:25:22;;;;;;;20.77;3.60;;;;;;;14.11;70.74;99767.44;5036128;28;20056;-47
2022/04/08 04:27:48;;;;;;;11.83;2.30;;;;;;;13.23;75.20;99767.75;5033200;28;20038;-46
2022/04/08 04:30:13;;;;;;;18.23;3.20;;;;;;;14.00;72.49;99762.97;5039360;28;20081;-46
2022/04/08 04:32:39;;;;;;;13.73;2.93;;;;;;;13.50;74.11;99768.03;5044190;28;20046;-46
2022/04/08 04:35:08;;;;;;;18.42;3.88;;;;;;;13.79;71.25;99761.81;5045484;28;20049;-46
2022/04/08 04:37:34;;;;;;;14.00;3.00;;;;;;;13.39;76.46;99764.31;5037023;28;20040;-47
2022/04/08 04:40:01;;;;;;;11.32;2.78;;;;;;;13.80;70.45;99766.94;5017551;28;20030;-46
2022/04/08 04:42:27;;;;;;;;;;;;;;;13.31;76.32;99776.25;5041246;28;20052;-46
2022/04/08 04:44:54;;;;;;;10.68;2.75;;;;;;;13.44;74.01;99777.06;5042412;28;19952;-48
2022/04/08 04:47:20;;;;;;;20.17;4.38;;;;;;;13.57;73.98;99775.97;5047869;28;20060;-48
2022/04/08 04:49:46;;;;;;;16.40;3.15;;;;;;;13.05;76.39;99778.44;5018646;28;20064;-50
2022/04/08 04:52:11;;;;;;;11.80;2.33;;;;;;;13.93;72.72;99781.13;5038673;28;20034;-47
2022/04/08 04:54:37;;;;;;;18.63;3.27;;;;;;;12.98;74.61;99772.41;5044739;28;20339;-46
2022/04/08 04:57:03;;;;;;;14.50;3.47;;;;;;;13.91;71.75;99768.75;5045557;28;20044;-46
2022/04/08 04:59:28;;;;;;;21.65;3.05;;;;;;;13.54;73.11;99771.06;5037424;28;20042;-48
2022/04/08 05:01:54;;;;;;;13.30;3.22;;;;;;;14.13;68.35;99776.06;5036101;28;20037;-46
2022/04/08 05:04:20;;;;;;;9.20;3.63;;;;;;;13.58;71.04;99774.91;5046567;28;20034;-45
2022/04/08 05:06:46;;;;;;;13.50;4.37;;;;;;;13.45;70.40;99781.38;5042983;28;20055;-48
2022/04/08 05:09:11;;;;;;;12.40;2.83;;;;;;;13.24;71.88;99769.41;5026540;28;20034;-47
2022/04/08 05:11:36;;;;;;;15.07;3.40;;;;;;;13.30;73.26;99773.84;5082705;28;20060;-47
2022/04/08 05:14:02;;;;;;;8.88;3.10;;;;;;;13.53;71.58;99778.31;5036646;28;20045;-48
2022/04/08 05:16:29;;;;;;;12.40;3.27;;;;;;;13.50;70.02;99768.03;5045533;28;20041;-49
2022/04/08 05:18:55;;;;;;;15.63;4.00;;;;;;;13.28;74.44;99766.00;5043941;28;20067;-47
2022/04/08 05:21:21;;;;;;;14.45;3.65;;;;;;;12.98;77.30;99775.09;5023662;28;20043;-48
2022/04/08 05:23:46;;;;;;;13.57;3.30;;;;;;;13.45;72.76;99781.38;5048457;28;20042;-50
2022/04/08 05:26:13;;;;;;;17.92;4.35;;;;;;;13.77;70.59;99778.16;5047473;28;20042;-49
2022/04/08 05:28:39;;;;;;;15.23;4.18;;;;;;;12.85;76.36;99780.72;5041714;28;20131;-46
2022/04/08 05:31:04;;;;;;;16.13;4.17;;;;;;;12.88;78.77;99767.66;5052829;28;20037;-46
2022/04/08 05:33:30;;;;;;;13.60;5.60;;;;;;;13.32;74.60;99775.19;5036767;28;20325;-49
2022/04/08 05:35:55;;;;;;;12.03;3.83;;;;;;;12.90;75.91;99767.41;5035338;28;20093;-48
2022/04/08 05:38:21;;;;;;;12.43;3.67;;;;;;;13.15;77.68;99766.31;5046009;28;20042;-51
2022/04/08 05:40:46;;;;;;;9.10;3.30;;;;;;;13.38;75.19;99768.06;5032558;28;20045;-48
2022/04/08 05:43:12;;;;;;;14.43;4.00;;;;;;;13.66;72.70;99762.94;5046088;28;20037;-46
2022/04/08 05:45:38;;;;;;;21.20;5.57;;;;;;;13.69;73.33;99765.16;5035733;28;20045;-47
2022/04/08 05:48:04;;;;;;;13.87;3.93;;;;;;;13.90;69.14;99771.66;5044814;28;20103;-49
2022/04/08 05:50:30;;;;;;;11.68;3.55;;;;;;;13.34;71.09;99764.22;5027774;28;20033;-45
2022/04/08 05:52:57;;;;;;;12.30;3.67;;;;;;;13.54;70.96;99752.28;5041281;28;20046;-49
2022/04/08 05:55:22;;;;;;;21.98;4.18;;;;;;;14.28;68.69;99751.28;5032156;28;20050;-49
2022/04/08 05:57:48;;;;;;;8.57;2.97;;;;;;;14.22;67.62;99751.47;5034119;28;20067;-50
2022/04/08 06:00:15;;;;;;;12.33;3.63;;;;;;;14.50;66.66;99745.13;5047150;28;20034;-52
2022/04/08 06:02:45;;;;;;;12.98;4.40;;;;;;;14.41;66.29;99750.13;5040758;28;20103;-48
2022/04/08 06:05:11;;;;;;;10.00;3.15;;;;;;;14.27;67.93;99748.84;5050096;28;20073;-49
2022/04/08 06:07:47;;;;;;;21.58;3.60;;;;;;;14.37;64.99;99742.78;5034951;28;20104;-49
2022/04/08 06:10:13;;;;;;;14.57;2.85;;;;;;;14.35;66.59;99745.75;5036936;28;20029;-46
2022/04/08 06:12:39;;;;;;;11.13;3.00;;;;;;;13.78;68.32;99752.94;5043133;28;20046;-45
2022/04/08 06:15:06;;;;;;;9.20;2.70;;;;;;;14.22;67.45;99756.84;5028935;28;20034;-48
2022/04/08 06:17:38;;;;;;;10.23;3.38;;;;;;;14.99;62.83;99749.00;5026301;28;20109;-47
2022/04/08 06:20:09;;;;;;;11.00;2.95;;;;;;;14.79;63.20;99749.56;5021400;28;20034;-48
2022/04/08 06:22:39;;;;;;;9.82;2.58;;;;;;;14.47;65.97;99749.13;5035889;28;20124;-46
2022/04/08 06:25:14;;;;;;;7.35;2.92;;;;;;;14.45;66.43;99745.88;5039553;28;20120;-45
2022/04/08 06:27:40;;;;;;;11.88;3.00;;;;;;;14.36;65.60;99744.69;5047643;28;20034;-48
2022/04/08 06:30:10;;;;;;;9.57;2.90;;;;;;;14.59;66.24;99745.53;5011904;28;20113;-45
2022/04/08 06:32:37;;;;;;;8.48;2.90;;;;;;;13.85;68.94;99758.97;5012104;28;20065;-45
2022/04/08 06:35:03;;;;;;;9.25;3.70;;;;;;;13.67;70.26;99757.31;5034764;28;20068;-48
2022/04/08 06:37:29;;;;;;;;;;;;;;;14.11;69.41;99762.06;5051420;28;20041;-46
2022/04/08 06:39:56;;;;;;;11.10;3.43;;;;;;;14.40;66.66;99753.06;5032441;28;19943;-46
2022/04/08 06:42:22;;;;;;;12.32;4.43;;;;;;;14.26;68.52;99742.66;5031559;28;20044;-46
2022/04/08 06:44:48;;;;;;;12.23;3.13;;;;;;;14.52;68.27;99750.25;5040949;28;20042;-47
2022/04/08 06:47:13;;;;;;;9.85;3.03;;;;;;;14.74;67.58;99743.03;5038104;28;20033;-48
2022/04/08 06:49:44;;;;;;;9.63;3.00;;;;;;;14.47;67.38;99738.38;5030723;28;20050;-49
2022/04/08 06:52:11;;;;;;;13.93;2.90;;;;;;;14.49;68.65;99736.25;5021705;28;20087;-48
2022/04/08 06:54:36;;;;;;;19.52;2.97;;;;;;;14.55;68.06;99741.72;5021611;28;20034;-49
2022/04/08 06:57:02;;;;;;;10.63;3.47;;;;;;;14.79;65.92;99744.19;5022478;28;20071;-52
2022/04/08 06:59:27;;;;;;;15.52;3.60;;;;;;;14.76;64.46;99746.31;5030880;28;20125;-46
2022/04/08 07:01:53;;;;;;;9.07;3.10;;;;;;;15.13;65.66;99744.03;5030376;28;20038;-47
2022/04/08 07:04:18;;;;;;;15.23;2.92;;;;;;;14.18;67.83;99751.94;5028462;28;20038;-47
2022/04/08 07:06:44;;;;;;;12.87;3.50;;;;;;;14.83;65.96;99750.69;5022784;28;20042;-46
2022/04/08 07:09:09;;;;;;;10.70;2.80;;;;;;;14.94;64.56;99746.25;5020836;28;20098;-47
2022/04/08 07:11:35;;;;;;;13.27;2.97;;;;;;;15.61;62.54;99750.44;5023528;28;20102;-48
2022/04/08 07:14:01;;;;;;;13.63;2.87;;;;;;;16.49;60.14;99751.09;5023514;28;20038;-48
2022/04/08 07:16:27;;;;;;;;;;;;;;;16.06;60.22;99742.19;5021616;28;20062;-49
2022/04/08 07:18:52;;;;;;;11.60;2.63;;;;;;;15.62;60.97;99748.56;5021516;28;19920;-45
2022/04/08 07:21:18;;;;;;;9.75;2.50;;;;;;;15.00;61.53;99748.75;5019391;28;20057;-49
2022/04/08 07:23:44;;;;;;;11.53;3.10;;;;;;;16.18;59.50;99750.09;5022972;28;20050;-47
2022/04/08 07:26:10;;;;;;;12.05;2.42;;;;;;;15.25;60.91;99747.41;5021553;28;20063;-49
2022/04/08 07:28:36;;;;;;;10.52;2.95;;;;;;;16.22;57.82;99745.81;5019531;28;20052;-47
2022/04/08 07:31:01;;;;;;;8.37;2.80;;;;;;;16.44;56.12;99748.38;5021940;28;20042;-44
2022/04/08 07:33:27;;;;;;;8.63;2.58;;;;;;;15.67;58.49;99748.63;5021616;28;20030;-48
2022/04/08 07:35:53;;;;;;;13.67;3.27;;;;;;;15.68;59.23;99749.41;5021453;28;20038;-49
2022/04/08 07:38:18;;;;;;;13.17;2.77;;;;;;;15.91;58.54;99746.44;5029612;28;20061;-50
2022/04/08 07:40:44;;;;;;;13.73;3.00;;;;;;;16.36;57.06;99759.66;5040453;28;20048;-48
2022/04/08 07:43:10;;;;;;;11.53;2.33;;;;;;;16.52;55.75;99747.09;5042908;28;20301;-48
2022/04/08 07:45:36;;;;;;;7.80;2.65;;;;;;;16.71;55.20;99744.72;5034568;28;20380;-53
2022/04/08 07:48:01;;;;;;;11.07;2.83;;;;;;;16.77;55.08;99738.28;5046477;28;20046;-51
2022/04/08 07:50:28;;;;;;;6.78;2.15;;;;;;;16.05;58.37;99743.28;5026545;28;20068;-47
2022/04/08 07:52:53;;;;;;;6.78;2.10;;;;;;;15.22;57.47;99747.09;5043303;28;20034;-53
2022/04/08 07:55:20;;;;;;;9.73;2.30;;;;;;;15.65;57.25;99734.59;5046392;28;20049;-54
2022/04/08 07:57:50;;;;;;;14.80;4.68;;;;;;;16.08;56.30;99734.66;5036781;28;20065;-48
2022/04/08 08:00:19;;;;;;;5.78;2.08;;;;;;;16.55;54.92;99721.44;5044346;28;20026;-49
2022/04/08 08:02:46;;;;;;;9.20;2.97;;;;;;;16.75;53.48;99731.53;5032034;28;20045;-47
2022/04/08 08:05:12;;;;;;;17.50;3.45;;;;;;;16.85;52.69;99728.84;5040884;28;20072;-50
2022/04/08 08:07:48;;;;;;;6.57;2.60;;;;;;;18.23;50.68;99733.91;5049507;28;20041;-51
2022/04/08 08:10:18;;;;;;;10.45;2.75;;;;;;;16.62;52.73;99730.13;5022783;28;20034;-47
2022/04/08 08:12:44;;;;;;;7.85;2.20;;;;;;;16.88;52.07;99739.13;5044772;28;20034;-52
2022/04/08 08:15:10;;;;;;;9.55;2.50;;;;;;;17.31;51.71;99732.78;5045874;28;20062;-47
2022/04/08 08:17:38;;;;;;;10.93;2.67;;;;;;;16.57;53.54;99725.50;5037591;28;20034;-46
2022/04/08 08:20:04;;;;;;;13.95;3.65;;;;;;;16.96;51.51;99729.69;5049808;28;20034;-49
2022/04/08 08:22:30;;;;;;;17.20;3.75;;;;;;;17.38;51.60;99729.84;5040508;28;20029;-49
2022/04/08 08:24:55;;;;;;;6.07;2.50;;;;;;;17.10;51.26;99729.25;5042825;28;20053;-47
2022/04/08 08:27:21;;;;;;;9.33;2.17;;;;;;;16.97;51.16;99712.44;5022522;28;20076;-46
2022/04/08 08:29:46;;;;;;;9.47;2.30;;;;;;;18.04;49.36;99722.84;5031254;28;20041;-51
2022/04/08 08:32:12;;;;;;;6.68;2.70;;;;;;;17.31;50.27;99720.09;5049176;28;20049;-48
2022/04/08 08:34:37;;;;;;;10.07;2.27;;;;;;;16.76;52.19;99716.97;5040118;28;20030;-48
2022/04/08 08:37:03;;;;;;;11.93;2.80;;;;;;;17.43;51.79;99706.34;5041975;28;20286;-49
2022/04/08 08:39:28;;;;;;;12.63;2.80;;;;;;;16.89;51.62;99704.84;5047700;28;20041;-49
2022/04/08 08:41:55;;;;;;;11.20;2.83;;;;;;;17.00;50.51;99708.41;5036738;28;20049;-49
2022/04/08 08:44:21;;;;;;;7.30;2.38;;;;;;;17.05;50.76;99694.91;5047908;28;20052;-50
2022/04/08 08:46:49;;;;;;;9.90;3.78;;;;;;;17.31;49.91;99703.91;5037838;28;20041;-51
2022/04/08 08:49:19;;;;;;;9.85;2.58;;;;;;;17.34;50.39;99707.94;5045946;28;20038;-49
2022/04/08 08:51:57;;;;;;;9.23;2.93;;;;;;;17.32;49.81;99700.13;5036802;28;20076;-48
2022/04/08 08:54:23;;;;;;;9.73;3.00;;;;;;;17.99;49.07;99695.75;5047056;28;20264;-49
2022/04/08 08:56:49;;;;;;;13.10;3.27;;;;;;;18.16;49.02;99696.28;5041283;28;20275;-48
2022/04/08 08:59:15;;;;;;;9.93;3.22;;;;;;;17.61;50.16;99701.47;5039206;28;20038;-49
2022/04/08 09:01:41;;;;;;;13.05;3.67;;;;;;;17.69;50.22;99690.13;5032099;28;20037;-49
2022/04/08 09:04:06;;;;;;;6.40;2.93;;;;;;;18.19;49.16;99684.91;5049159;28;20112;-51
2022/04/08 09:06:41;;;;;;;9.70;2.77;;;;;;;17.88;49.62;99684.16;5039637;28;20044;-48
2022/04/08 09:09:07;;;;;;;10.40;2.80;;;;;;;17.90;50.20;99680.09;5052397;28;20026;-53
2022/04/08 09:11:33;;;;;;;7.32;2.53;;;;;;;18.11;49.81;99688.19;5037693;28;20301;-46
2022/04/08 09:14:03;;;;;;;8.80;3.20;;;;;;;17.26;50.36;99676.84;5048514;28;20061;-47
2022/04/08 09:16:35;;;;;;;10.37;3.20;;;;;;;17.55;50.64;99670.94;5039110;28;20049;-47
2022/04/08 09:19:12;;;;;;;7.83;3.10;;;;;;;18.17;48.00;99668.16;5041688;28;20275;-49
2022/04/08 09:21:38;;;;;;;10.05;4.05;;;;;;;18.02;48.48;99676.31;5032557;28;20267;-52
2022/04/08 09:24:07;;;;;;;6.63;2.47;;;;;;;18.90;46.46;99681.38;5034785;28;20033;-48
2022/04/08 09:26:36;;;;;;;8.17;2.73;;;;;;;18.80;45.76;99673.31;5045352;28;20271;-50
2022/04/08 09:29:03;;;;;;;12.83;3.23;;;;;;;18.81;46.76;99673.06;5043616;28;20362;-49
2022/04/08 09:31:30;;;;;;;9.57;2.40;;;;;;;19.15;45.67;99674.25;5037631;28;20294;-48
2022/04/08 09:33:55;;;;;;;11.80;2.83;;;;;;;18.50;45.56;99684.00;5048719;28;20271;-49
2022/04/08 09:36:31;;;;;;;9.70;2.63;;;;;;;18.13;46.12;99680.63;5037741;28;20354;-48
2022/04/08 09:38:57;;;;;;;12.18;2.78;;;;;;;18.42;44.70;99673.75;5042111;28;20038;-48
2022/04/08 09:41:43;;;;;;;12.05;3.45;;;;;;;17.80;46.09;99669.28;5030027;28;20056;-46
2022/04/08 09:44:11;;;;;;;7.63;2.70;;;;;;;18.41;46.23;99670.25;5019711;28;20041;-46
2022/04/08 09:46:37;;;;;;;5.93;2.53;;;;;;;18.71;46.06;99660.38;5045139;28;20275;-49
2022/04/08 09:49:04;;;;;;;8.88;3.55;;;;;;;18.56;44.61;99657.72;5032121;28;20355;-47
2022/04/08 09:51:36;;;;;;;11.93;3.00;;;;;;;17.36;46.79;99656.34;5046610;28;20074;-47
2022/04/08 09:54:02;;;;;;;11.53;3.13;;;;;;;19.13;45.18;99668.25;5035149;28;20778;-45
2022/04/08 09:56:28;;;;;;;;;;;;;;;18.56;45.10;99655.03;5046469;28;20279;-48
2022/04/08 09:59:06;;;;;;;17.60;3.30;;;;;;;18.72;44.32;99645.75;5041798;28;19934;-47
2022/04/08 10:01:35;;;;;;;7.27;2.30;;;;;;;18.40;44.36;99659.69;5036973;28;20064;-50
2022/04/08 10:04:03;;;;;;;9.93;3.70;;;;;;;18.30;45.80;99649.72;5047943;28;20271;-48
2022/04/08 10:06:29;;;;;;;10.17;2.63;;;;;;;17.73;45.84;99661.44;5038001;28;20269;-49
2022/04/08 10:08:56;;;;;;;9.52;3.03;;;;;;;18.40;45.71;99646.16;5041860;28;20302;-49
2022/04/08 10:11:27;;;;;;;;;;;;;;;19.37;42.92;99645.88;5045351;28;20072;-51
2022/04/08 10:14:03;;;;;;;15.77;3.93;;;;;;;19.35;43.55;99655.09;5034842;28;19929;-50
2022/04/08 10:16:30;;;;;;;13.93;2.92;;;;;;;19.14;43.86;99657.16;5044952;28;20283;-50
2022/04/08 10:18:56;;;;;;;15.73;2.83;;;;;;;19.19;43.14;99650.91;5041644;28;20041;-49
2022/04/08 10:21:21;;;;;;;12.23;3.70;;;;;;;20.01;43.16;99654.00;5038402;28;20034;-52
2022/04/08 10:23:49;;;;;;;13.37;3.73;;;;;;;18.79;44.34;99658.97;5047808;28;20037;-46
2022/04/08 10:26:23;;;;;;;16.73;3.63;;;;;;;17.80;45.42;99658.47;5036130;28;20038;-49
2022/04/08 10:28:50;;;;;;;6.90;2.97;;;;;;;18.19;45.60;99649.75;5043098;28;20275;-49
2022/04/08 10:31:24;;;;;;;16.47;3.27;;;;;;;18.92;44.18;99654.84;5044454;28;20294;-52
2022/04/08 10:33:57;;;;;;;8.87;2.90;;;;;;;18.73;45.27;99660.91;5034824;28;20279;-48
2022/04/08 10:36:37;;;;;;;14.90;2.73;;;;;;;18.17;45.14;99659.25;5107686;28;20274;-47
2022/04/08 10:39:12;;;;;;;17.63;2.93;;;;;;;18.57;44.28;99656.66;5042311;28;20289;-52
2022/04/08 10:41:44;;;;;;;8.73;2.77;;;;;;;18.49;44.84;99644.50;5036022;28;20283;-47
2022/04/08 10:44:09;;;;;;;13.07;3.10;;;;;;;19.08;43.70;99633.91;5047799;28;20761;-49
2022/04/08 10:46:35;;;;;;;9.40;2.83;;;;;;;20.21;41.34;99631.25;5038404;28;20323;-48
2022/04/08 10:49:00;;;;;;;13.10;3.83;;;;;;;19.79;41.76;99657.97;5040963;28;20045;-49
2022/04/08 10:51:31;;;;;;;10.07;2.93;;;;;;;18.56;43.09;99660.44;5044975;28;20286;-48
2022/04/08 10:54:04;;;;;;;13.97;3.90;;;;;;;17.89;45.22;99664.94;5034420;28;20053;-50
2022/04/08 10:56:34;;;;;;;13.07;4.20;;;;;;;18.11;44.88;99661.13;5045372;28;20278;-50
2022/04/08 10:59:00;;;;;;;8.93;3.20;;;;;;;18.84;43.92;99663.53;5041409;28;20278;-50
2022/04/08 11:01:26;;;;;;;16.33;3.95;;;;;;;18.32;43.77;99670.00;5037340;28;20326;-49
2022/04/08 11:03:57;;;;;;;10.30;3.60;;;;;;;19.57;42.24;99661.16;5047234;28;20052;-50
2022/04/08 11:06:27;;;;;;;9.57;4.03;;;;;;;18.95;42.91;99654.28;5035714;28;20098;-49
2022/04/08 11:08:53;;;;;;;10.00;3.40;;;;;;;19.77;40.91;99665.59;5042111;28;20275;-50
2022/04/08 11:11:29;;;;;;;14.32;3.90;;;;;;;18.98;42.63;99656.47;5043772;28;20304;-49
2022/04/08 11:13:59;;;;;;;10.35;3.20;;;;;;;19.01;42.58;99650.47;5034270;28;20052;-49
2022/04/08 11:16:31;;;;;;;8.47;3.57;;;;;;;18.78;42.52;99647.34;5045902;28;20030;-48
2022/04/08 11:18:57;;;;;;;11.20;3.00;;;;;;;18.80;42.96;99624.56;5040864;28;20308;-48
2022/04/08 11:21:26;;;;;;;6.68;2.55;;;;;;;18.17;43.60;99637.59;5023866;28;20289;-47
2022/04/08 11:24:03;;;;;;;13.53;3.00;;;;;;;17.78;44.37;99641.72;5044152;28;20066;-47
2022/04/08 11:26:31;;;;;;;11.03;3.40;;;;;;;18.74;43.48;99631.91;5036673;28;20271;-46